createdAt,value
2023-03-04T00:00:31.624Z,100571.41
2023-03-04T00:02:59.349Z,100569.50
2023-03-04T00:05:27.043Z,100570.88
2023-03-04T00:07:54.653Z,100571.22
2023-03-04T00:10:22.266Z,100580.97
2023-03-04T00:12:49.887Z,100582.34
2023-03-04T00:15:18.828Z,100580.19
2023-03-04T00:17:46.791Z,100585.59
2023-03-04T00:20:15.466Z,100582.97
2023-03-04T00:22:43.105Z,100586.94
2023-03-04T00:25:10.814Z,100582.91
2023-03-04T00:27:38.440Z,100586.19
2023-03-04T00:30:07.676Z,100579.22
2023-03-04T00:32:36.736Z,100540.88
2023-03-04T00:35:05.045Z,100586.78
2023-03-04T00:37:32.729Z,100585.66
2023-03-04T00:40:00.351Z,100584.56
2023-03-04T00:42:28.016Z,100583.31
2023-03-04T00:44:55.685Z,100588.91
2023-03-04T00:47:23.345Z,100598.09
2023-03-04T00:49:52.302Z,100595.75
2023-03-04T00:52:19.956Z,100589.31
2023-03-04T00:54:47.657Z,100601.41
2023-03-04T00:57:15.715Z,100592.19
2023-03-04T00:59:43.789Z,100593.59
2023-03-04T01:02:11.667Z,100591.94
2023-03-04T01:04:39.712Z,100594.09
2023-03-04T01:07:08.870Z,100588.47
2023-03-04T01:09:36.638Z,100586.00
2023-03-04T01:12:04.495Z,100589.81
2023-03-04T01:14:32.334Z,100589.09
2023-03-04T01:17:00.197Z,100582.06
2023-03-04T01:19:27.920Z,100589.63
2023-03-04T01:21:55.677Z,100588.78
2023-03-04T01:24:24.640Z,100586.91
2023-03-04T01:26:52.533Z,100586.63
2023-03-04T01:29:22.313Z,100567.50
2023-03-04T01:31:49.959Z,100583.13
2023-03-04T01:34:18.043Z,100578.25
2023-03-04T01:36:45.697Z,100578.81
2023-03-04T01:39:13.355Z,100574.03
2023-03-04T01:41:42.487Z,100568.31
2023-03-04T01:44:11.841Z,100569.44
2023-03-04T01:46:42.036Z,100567.91
2023-03-04T01:49:13.424Z,100567.13
2023-03-04T01:51:43.287Z,100566.03
2023-03-04T01:54:11.099Z,100549.09
2023-03-04T01:56:41.041Z,100564.69
2023-03-04T01:59:12.600Z,100555.31
2023-03-04T02:01:43.003Z,100549.94
2023-03-04T02:04:11.175Z,100555.56
2023-03-04T02:06:41.054Z,100548.06
2023-03-04T02:09:09.272Z,100548.25
2023-03-04T02:11:38.143Z,100546.66
2023-03-04T02:14:07.098Z,100542.06
2023-03-04T02:16:36.315Z,100531.28
2023-03-04T02:19:08.203Z,100537.72
2023-03-04T02:21:36.075Z,100539.09
2023-03-04T02:24:11.735Z,100530.47
2023-03-04T02:26:43.430Z,100523.25
2023-03-04T02:29:14.076Z,100491.28
2023-03-04T02:31:44.058Z,100531.72
2023-03-04T02:34:15.411Z,100529.38
2023-03-04T02:36:44.598Z,100528.88
2023-03-04T02:39:16.157Z,100530.53
2023-03-04T02:41:47.304Z,100530.75
2023-03-04T02:44:19.482Z,100532.13
2023-03-04T02:46:47.998Z,100521.91
2023-03-04T02:49:16.014Z,100527.84
2023-03-04T02:51:43.830Z,100525.16
2023-03-04T02:54:16.820Z,100514.38
2023-03-04T02:56:50.537Z,100518.91
2023-03-04T02:59:19.712Z,100496.59
2023-03-04T03:01:47.729Z,100515.09
2023-03-04T03:04:15.873Z,100520.16
2023-03-04T03:06:45.724Z,100491.22
2023-03-04T03:09:13.630Z,100512.19
2023-03-04T03:11:41.577Z,100507.81
2023-03-04T03:14:11.718Z,100517.16
2023-03-04T03:16:39.844Z,100521.31
2023-03-04T03:19:07.686Z,100451.94
2023-03-04T03:21:37.136Z,100515.84
2023-03-04T03:24:05.476Z,100510.94
2023-03-04T03:26:33.197Z,100518.31
2023-03-04T03:29:00.875Z,100519.38
2023-03-04T03:31:30.946Z,100518.50
2023-03-04T03:33:58.683Z,100513.59
2023-03-04T03:36:27.937Z,100517.41
2023-03-04T03:38:55.674Z,100519.47
2023-03-04T03:41:23.380Z,100520.16
2023-03-04T03:43:51.035Z,100515.50
2023-03-04T03:46:18.793Z,100510.88
2023-03-04T03:48:47.817Z,100449.97
2023-03-04T03:51:15.531Z,100511.75
2023-03-04T03:53:43.230Z,100510.16
2023-03-04T03:56:10.938Z,100514.91
2023-03-04T03:58:38.660Z,100520.22
2023-03-04T04:01:06.673Z,100508.22
2023-03-04T04:03:34.615Z,100511.31
2023-03-04T04:06:04.842Z,100512.94
2023-03-04T04:08:33.389Z,100511.81
2023-03-04T04:11:01.059Z,100504.31
2023-03-04T04:13:28.853Z,100505.84
2023-03-04T04:15:56.563Z,100504.81
2023-03-04T04:18:25.796Z,100504.13
2023-03-04T04:20:54.702Z,100511.09
2023-03-04T04:23:23.937Z,100511.69
2023-03-04T04:25:51.615Z,100515.47
2023-03-04T04:28:19.332Z,100512.84
2023-03-04T04:30:47.214Z,100515.28
2023-03-04T04:33:14.915Z,100514.03
2023-03-04T04:35:42.631Z,100511.03
2023-03-04T04:38:10.923Z,100514.03
2023-03-04T04:40:40.005Z,100512.34
2023-03-04T04:43:07.868Z,100511.50
2023-03-04T04:45:36.112Z,100516.59
2023-03-04T04:48:03.925Z,100518.06
2023-03-04T04:50:33.021Z,100516.38
2023-03-04T04:53:00.919Z,100509.88
2023-03-04T04:55:28.535Z,100509.88
2023-03-04T04:57:57.570Z,100516.03
2023-03-04T05:00:25.441Z,100507.28
2023-03-04T05:02:53.168Z,100513.13
2023-03-04T05:05:21.027Z,100513.25
2023-03-04T05:07:48.692Z,100514.13
2023-03-04T05:10:16.846Z,100520.78
2023-03-04T05:12:45.377Z,100519.03
2023-03-04T05:15:14.364Z,100520.91
2023-03-04T05:17:42.042Z,100518.38
2023-03-04T05:20:11.127Z,100522.88
2023-03-04T05:22:38.760Z,100513.06
2023-03-04T05:25:07.051Z,100523.00
2023-03-04T05:27:34.764Z,100529.88
2023-03-04T05:30:02.531Z,100528.41
2023-03-04T05:32:31.542Z,100525.13
2023-03-04T05:34:59.340Z,100530.91
2023-03-04T05:37:27.469Z,100524.59
2023-03-04T05:39:55.144Z,100516.50
2023-03-04T05:42:22.808Z,100516.56
2023-03-04T05:44:50.511Z,100524.53
2023-03-04T05:47:18.168Z,100513.06
2023-03-04T05:49:47.245Z,100469.31
2023-03-04T05:52:15.018Z,100512.56
2023-03-04T05:54:42.716Z,100515.03
2023-03-04T05:57:10.353Z,100518.59
2023-03-04T05:59:38.124Z,100518.66
2023-03-04T06:02:05.795Z,100517.88
2023-03-04T06:04:33.530Z,100525.03
2023-03-04T06:07:02.510Z,100525.66
2023-03-04T06:09:30.218Z,100532.59
2023-03-04T06:11:57.807Z,100529.69
2023-03-04T06:14:25.526Z,100533.69
2023-03-04T06:16:53.207Z,100542.38
2023-03-04T06:19:21.177Z,100542.09
2023-03-04T06:21:48.935Z,100534.84
2023-03-04T06:24:18.142Z,100547.69
2023-03-04T06:26:45.837Z,100551.03
2023-03-04T06:29:13.570Z,100546.34
2023-03-04T06:31:41.930Z,100547.63
2023-03-04T06:34:10.159Z,100550.44
2023-03-04T06:36:37.853Z,100556.69
2023-03-04T06:39:06.503Z,100556.69
2023-03-04T06:41:35.794Z,100548.34
2023-03-04T06:44:03.862Z,100554.00
2023-03-04T06:46:31.629Z,100518.84
2023-03-04T06:48:59.466Z,100559.13
2023-03-04T06:51:27.309Z,100565.34
2023-03-04T06:53:55.396Z,100560.25
2023-03-04T06:56:23.299Z,100567.97
2023-03-04T06:58:52.609Z,100536.25
2023-03-04T07:01:22.203Z,100567.78
2023-03-04T07:03:51.206Z,100573.97
2023-03-04T07:06:21.972Z,100571.97
2023-03-04T07:08:50.265Z,100576.19
2023-03-04T07:11:18.786Z,100538.75
2023-03-04T07:13:46.858Z,100579.22
2023-03-04T07:16:18.654Z,100587.06
2023-03-04T07:18:47.326Z,100562.53
2023-03-04T07:21:15.801Z,100583.84
2023-03-04T07:23:43.832Z,100586.72
2023-03-04T07:26:11.540Z,100595.19
2023-03-04T07:28:39.325Z,100590.84
2023-03-04T07:31:14.582Z,100587.03
2023-03-04T07:33:43.628Z,100602.53
2023-03-04T07:36:11.509Z,100598.00
2023-03-04T07:38:39.190Z,100599.78
2023-03-04T07:41:06.889Z,100603.41
2023-03-04T07:43:34.618Z,100602.31
2023-03-04T07:46:03.058Z,100611.03
2023-03-04T07:48:31.113Z,100605.59
2023-03-04T07:51:09.583Z,100602.97
2023-03-04T07:53:38.662Z,100603.16
2023-03-04T07:56:08.061Z,100580.97
2023-03-04T07:58:35.739Z,100604.41
2023-03-04T08:01:10.119Z,100587.53
2023-03-04T08:03:37.759Z,100612.75
2023-03-04T08:06:08.038Z,100607.81
2023-03-04T08:08:36.267Z,100607.09
2023-03-04T08:11:05.946Z,100610.22
2023-03-04T08:13:33.803Z,100613.75
2023-03-04T08:16:01.609Z,100597.66
2023-03-04T08:18:29.313Z,100619.13
2023-03-04T08:20:57.262Z,100579.03
2023-03-04T08:23:26.462Z,100621.94
2023-03-04T08:25:54.441Z,100613.28
2023-03-04T08:28:22.248Z,100614.25
2023-03-04T08:30:54.354Z,100616.00
2023-03-04T08:33:22.026Z,100617.09
2023-03-04T08:35:49.747Z,100620.03
2023-03-04T08:38:17.448Z,100616.38
2023-03-04T08:40:46.441Z,100620.16
2023-03-04T08:43:14.367Z,100629.00
2023-03-04T08:45:41.984Z,100619.09
2023-03-04T08:48:09.617Z,100626.28
2023-03-04T08:50:37.270Z,100624.06
2023-03-04T08:53:05.057Z,100626.06
2023-03-04T08:55:32.733Z,100623.34
2023-03-04T08:58:01.794Z,100627.22
2023-03-04T09:00:29.542Z,100627.41
2023-03-04T09:02:57.312Z,100626.91
2023-03-04T09:05:24.960Z,100627.28
2023-03-04T09:07:52.602Z,100634.09
2023-03-04T09:10:20.451Z,100629.50
2023-03-04T09:12:48.842Z,100628.50
2023-03-04T09:15:17.840Z,100629.25
2023-03-04T09:17:45.488Z,100635.78
2023-03-04T09:20:14.383Z,100633.06
2023-03-04T09:22:43.229Z,100632.56
2023-03-04T09:25:14.594Z,100640.59
2023-03-04T09:27:42.399Z,100633.91
2023-03-04T09:30:11.202Z,100629.28
2023-03-04T09:32:41.332Z,100627.75
2023-03-04T09:35:10.067Z,100624.75
2023-03-04T09:37:40.306Z,100619.97
2023-03-04T09:40:14.384Z,100623.41
2023-03-04T09:42:47.543Z,100622.84
2023-03-04T09:45:19.860Z,100630.69
2023-03-04T09:47:52.426Z,100634.78
2023-03-04T09:50:21.602Z,100631.63
2023-03-04T09:53:07.645Z,100630.25
2023-03-04T09:55:38.274Z,100624.66
2023-03-04T09:58:14.947Z,100632.88
2023-03-04T10:00:44.825Z,100627.75
2023-03-04T10:03:19.844Z,100630.78
2023-03-04T10:05:55.147Z,100630.97
2023-03-04T10:08:38.900Z,100627.75
2023-03-04T10:11:14.123Z,100633.19
2023-03-04T10:13:52.285Z,100633.69
2023-03-04T10:16:23.807Z,100550.22
2023-03-04T10:18:56.976Z,100627.13
2023-03-04T10:21:31.602Z,100632.88
2023-03-04T10:24:02.595Z,100640.88
2023-03-04T10:26:33.077Z,100629.84
2023-03-04T10:29:03.001Z,100628.41
2023-03-04T10:31:36.600Z,100631.75
2023-03-04T10:34:07.092Z,100635.44
2023-03-04T10:36:48.663Z,100625.19
2023-03-04T10:39:22.774Z,100631.25
2023-03-04T10:41:57.586Z,100631.44
2023-03-04T10:44:26.739Z,100631.78
2023-03-04T10:46:56.316Z,100623.25
2023-03-04T10:49:26.658Z,100630.50
2023-03-04T10:51:57.682Z,100618.59
2023-03-04T10:54:28.324Z,100622.94
2023-03-04T10:57:05.103Z,100614.59
2023-03-04T10:59:41.456Z,100621.16
2023-03-04T11:02:18.611Z,100606.88
2023-03-04T11:04:56.529Z,100606.69
2023-03-04T11:07:26.874Z,100608.81
2023-03-04T11:09:58.241Z,100608.94
2023-03-04T11:12:34.986Z,100604.94
2023-03-04T11:15:03.884Z,100607.00
2023-03-04T11:17:43.668Z,100594.03
2023-03-04T11:20:17.640Z,100595.63
2023-03-04T11:22:46.990Z,100584.50
2023-03-04T11:25:27.580Z,100587.41
2023-03-04T11:27:59.046Z,100575.34
2023-03-04T11:30:42.313Z,100568.97
2023-03-04T11:33:23.292Z,100582.06
2023-03-04T11:36:09.761Z,100581.75
2023-03-04T11:38:40.486Z,100581.25
2023-03-04T11:41:13.412Z,100574.56
2023-03-04T11:43:44.414Z,100581.34
2023-03-04T11:46:31.603Z,100575.72
2023-03-04T11:49:16.633Z,100578.25
2023-03-04T11:51:51.177Z,100570.22
2023-03-04T11:54:30.442Z,100569.19
2023-03-04T11:57:01.790Z,100575.56
2023-03-04T11:59:51.915Z,100568.34
2023-03-04T12:02:21.825Z,100565.91
2023-03-04T12:05:12.080Z,100560.56
2023-03-04T12:07:51.198Z,100559.56
2023-03-04T12:10:26.721Z,100560.13
2023-03-04T12:13:13.953Z,100552.38
2023-03-04T12:15:49.267Z,100552.31
2023-03-04T12:18:31.042Z,100549.59
2023-03-04T12:21:09.720Z,100551.59
2023-03-04T12:24:01.228Z,100538.00
2023-03-04T12:26:38.759Z,100541.38
2023-03-04T12:29:16.145Z,100540.00
2023-03-04T12:31:46.537Z,100539.97
2023-03-04T12:34:31.243Z,100543.66
2023-03-04T12:37:18.019Z,100530.91
2023-03-04T12:39:55.105Z,100537.00
2023-03-04T12:42:31.701Z,100533.59
2023-03-04T12:45:14.173Z,100529.72
2023-03-04T12:47:51.760Z,100532.22
2023-03-04T12:50:32.965Z,100529.81
2023-03-04T12:53:10.343Z,100526.66
2023-03-04T12:55:41.822Z,100524.97
2023-03-04T12:58:16.885Z,100506.88
2023-03-04T13:01:00.750Z,100517.09
2023-03-04T13:03:38.738Z,100511.28
2023-03-04T13:06:14.608Z,100508.84
2023-03-04T13:08:54.853Z,100507.91
2023-03-04T13:11:52.587Z,100485.72
2023-03-04T13:14:34.224Z,100486.00
2023-03-04T13:17:09.956Z,100484.13
2023-03-04T13:19:52.839Z,100501.66
2023-03-04T13:22:43.835Z,100497.84
2023-03-04T13:25:36.005Z,100501.84
2023-03-04T13:28:33.112Z,100498.78
2023-03-04T13:31:14.614Z,100438.19
2023-03-04T13:33:49.521Z,100484.13
2023-03-04T13:36:33.371Z,100489.19
2023-03-04T13:39:04.344Z,100487.22
2023-03-04T13:41:46.606Z,100483.63
2023-03-04T13:44:57.188Z,100477.69
2023-03-04T13:47:43.667Z,100482.19
2023-03-04T13:50:29.789Z,100470.38
2023-03-04T13:53:15.616Z,100465.41
2023-03-04T13:55:44.429Z,100469.03
2023-03-04T13:58:21.212Z,100464.47
2023-03-04T14:00:53.120Z,100461.31
2023-03-04T14:03:24.329Z,100456.00
2023-03-04T14:06:12.461Z,100463.47
2023-03-04T14:08:40.692Z,100461.38
2023-03-04T14:11:13.831Z,100462.84
2023-03-04T14:13:41.984Z,100459.59
2023-03-04T14:16:11.475Z,100460.53
2023-03-04T14:18:39.298Z,100459.03
2023-03-04T14:21:07.432Z,100461.00
2023-03-04T14:23:36.637Z,100459.00
2023-03-04T14:26:09.382Z,100422.06
2023-03-04T14:28:44.334Z,100444.59
2023-03-04T14:31:19.077Z,100449.13
2023-03-04T14:33:49.812Z,100451.28
2023-03-04T14:36:21.790Z,100442.34
2023-03-04T14:38:55.338Z,100441.63
2023-03-04T14:41:29.006Z,100440.03
2023-03-04T14:44:09.872Z,100435.28
2023-03-04T14:46:46.119Z,100443.56
2023-03-04T14:49:19.115Z,100427.38
2023-03-04T14:51:49.416Z,100424.44
2023-03-04T14:54:33.584Z,100421.59
2023-03-04T14:57:15.943Z,100414.25
2023-03-04T14:59:43.773Z,100417.31
2023-03-04T15:02:31.105Z,100410.13
2023-03-04T15:05:01.301Z,100409.56
2023-03-04T15:07:34.669Z,100391.81
2023-03-04T15:10:05.132Z,100405.13
2023-03-04T15:12:35.197Z,100404.25
2023-03-04T15:15:04.830Z,100400.13
2023-03-04T15:17:38.600Z,100397.59
2023-03-04T15:20:26.284Z,100405.34
2023-03-04T15:23:14.804Z,100400.28
2023-03-04T15:25:42.676Z,100399.00
2023-03-04T15:28:17.999Z,100397.09
2023-03-04T15:30:45.926Z,100399.81
2023-03-04T15:33:15.233Z,100404.41
2023-03-04T15:35:49.293Z,100395.63
2023-03-04T15:38:17.179Z,100401.53
2023-03-04T15:40:44.808Z,100398.34
2023-03-04T15:43:16.280Z,100369.59
2023-03-04T15:45:44.508Z,100396.88
2023-03-04T15:48:15.719Z,100396.09
2023-03-04T15:50:46.016Z,100389.88
2023-03-04T15:53:18.434Z,100394.44
2023-03-04T15:55:47.603Z,100363.41
2023-03-04T15:58:15.971Z,100385.78
2023-03-04T16:00:44.120Z,100386.25
2023-03-04T16:03:21.389Z,100383.25
2023-03-04T16:05:51.172Z,100375.19
2023-03-04T16:08:21.314Z,100372.53
2023-03-04T16:10:49.251Z,100377.06
2023-03-04T16:13:18.706Z,100382.91
2023-03-04T16:15:46.895Z,100372.88
2023-03-04T16:18:16.021Z,100373.66
2023-03-04T16:20:47.255Z,100365.63
2023-03-04T16:23:18.686Z,100371.16
2023-03-04T16:25:48.058Z,100374.53
2023-03-04T16:28:15.898Z,100372.41
2023-03-04T16:30:44.189Z,100342.91
2023-03-04T16:33:12.504Z,100377.38
2023-03-04T16:35:40.780Z,100380.72
2023-03-04T16:38:23.124Z,100372.84
2023-03-04T16:40:50.796Z,100376.84
2023-03-04T16:43:18.463Z,100380.03
2023-03-04T16:45:46.207Z,100373.53
2023-03-04T16:48:13.868Z,100380.53
2023-03-04T16:50:41.924Z,100377.75
2023-03-04T16:53:24.105Z,100377.50
2023-03-04T16:55:51.874Z,100374.09
2023-03-04T16:58:19.552Z,100376.00
2023-03-04T17:00:47.746Z,100376.16
2023-03-04T17:03:15.449Z,100376.72
2023-03-04T17:05:44.299Z,100362.16
2023-03-04T17:08:11.952Z,100370.34
2023-03-04T17:10:40.990Z,100372.94
2023-03-04T17:13:08.829Z,100370.81
2023-03-04T17:15:36.634Z,100375.84
2023-03-04T17:18:04.382Z,100381.16
2023-03-04T17:20:32.075Z,100385.84
2023-03-04T17:22:59.856Z,100379.25
2023-03-04T17:25:27.490Z,100381.25
2023-03-04T17:27:56.474Z,100386.56
2023-03-04T17:30:24.156Z,100385.94
2023-03-04T17:32:51.821Z,100384.84
2023-03-04T17:35:19.491Z,100383.53
2023-03-04T17:37:47.217Z,100382.75
2023-03-04T17:40:15.172Z,100380.66
2023-03-04T17:42:43.283Z,100380.34
2023-03-04T17:45:12.714Z,100345.56
2023-03-04T17:47:40.429Z,100382.22
2023-03-04T17:50:09.557Z,100376.25
2023-03-04T17:52:37.228Z,100380.91
2023-03-04T17:55:05.527Z,100383.38
2023-03-04T17:57:36.772Z,100369.91
2023-03-04T18:00:05.975Z,100310.44
2023-03-04T18:02:35.040Z,100362.78
2023-03-04T18:05:05.683Z,100371.06
2023-03-04T18:07:33.446Z,100364.88
2023-03-04T18:10:01.190Z,100361.84
2023-03-04T18:12:28.910Z,100370.13
2023-03-04T18:14:56.712Z,100371.34
2023-03-04T18:17:24.445Z,100364.81
2023-03-04T18:19:53.376Z,100361.38
2023-03-04T18:22:21.094Z,100365.75
2023-03-04T18:24:49.141Z,100354.75
2023-03-04T18:27:16.792Z,100361.25
2023-03-04T18:29:44.427Z,100343.38
2023-03-04T18:32:12.183Z,100349.16
2023-03-04T18:34:39.890Z,100351.34
2023-03-04T18:37:09.432Z,100350.59
2023-03-04T18:39:37.157Z,100347.69
2023-03-04T18:42:04.967Z,100342.03
2023-03-04T18:44:32.939Z,100354.19
2023-03-04T18:47:00.796Z,100350.34
2023-03-04T18:49:28.592Z,100347.16
2023-03-04T18:51:56.223Z,100349.19
2023-03-04T18:54:25.201Z,100351.09
2023-03-04T18:56:55.554Z,100325.03
2023-03-04T18:59:27.784Z,100351.94
2023-03-04T19:01:55.926Z,100351.94
2023-03-04T19:04:27.204Z,100358.06
2023-03-04T19:06:55.050Z,100348.88
2023-03-04T19:09:23.070Z,100359.63
2023-03-04T19:11:52.106Z,100352.59
2023-03-04T19:14:19.759Z,100353.06
2023-03-04T19:16:47.483Z,100343.53
2023-03-04T19:19:15.590Z,100341.59
2023-03-04T19:21:43.290Z,100351.31
2023-03-04T19:24:10.947Z,100353.91
2023-03-04T19:26:39.951Z,100352.03
2023-03-04T19:29:09.001Z,100342.88
2023-03-04T19:31:41.351Z,100345.63
2023-03-04T19:34:09.611Z,100348.16
2023-03-04T19:36:37.263Z,100340.78
2023-03-04T19:39:05.233Z,100337.25
2023-03-04T19:41:33.137Z,100329.22
2023-03-04T19:44:00.812Z,100333.59
2023-03-04T19:46:32.143Z,100339.16
2023-03-04T19:49:02.300Z,100345.06
2023-03-04T19:51:32.094Z,100338.63
2023-03-04T19:54:00.589Z,100343.00
2023-03-04T19:56:28.384Z,100335.25
2023-03-04T19:58:57.183Z,100337.97
2023-03-04T20:01:28.177Z,100341.63
2023-03-04T20:03:58.775Z,100336.66
2023-03-04T20:06:27.170Z,100335.97
2023-03-04T20:08:58.191Z,100334.50
2023-03-04T20:11:26.627Z,100329.06
2023-03-04T20:13:54.960Z,100338.25
2023-03-04T20:16:22.642Z,100327.88
2023-03-04T20:18:50.347Z,100324.00
2023-03-04T20:21:19.579Z,100329.97
2023-03-04T20:23:47.895Z,100331.06
2023-03-04T20:26:15.667Z,100334.09
2023-03-04T20:28:50.501Z,100333.00
2023-03-04T20:31:21.454Z,100333.63
2023-03-04T20:33:50.273Z,100335.84
2023-03-04T20:36:20.781Z,100341.75
2023-03-04T20:38:48.838Z,100338.84
2023-03-04T20:41:17.238Z,100341.72
2023-03-04T20:43:44.947Z,100340.91
2023-03-04T20:46:26.545Z,100337.44
2023-03-04T20:48:54.404Z,100328.09
2023-03-04T20:51:26.074Z,100341.16
2023-03-04T20:53:55.244Z,100340.09
2023-03-04T20:56:24.136Z,100334.72
2023-03-04T20:58:51.993Z,100339.72
2023-03-04T21:01:19.799Z,100331.75
2023-03-04T21:03:48.647Z,100324.09
2023-03-04T21:06:16.801Z,100327.25
2023-03-04T21:08:45.986Z,100332.19
2023-03-04T21:11:13.898Z,100328.09
2023-03-04T21:13:42.973Z,100324.66
2023-03-04T21:16:15.017Z,100319.53
2023-03-04T21:18:44.345Z,100321.06
2023-03-04T21:21:14.115Z,100323.09
2023-03-04T21:23:41.856Z,100320.38
2023-03-04T21:26:10.840Z,100317.91
2023-03-04T21:28:38.482Z,100310.81
2023-03-04T21:31:07.235Z,100323.66
2023-03-04T21:33:36.872Z,100312.31
2023-03-04T21:36:04.982Z,100309.84
2023-03-04T21:38:32.776Z,100313.16
2023-03-04T21:41:00.436Z,100316.97
2023-03-04T21:43:29.465Z,100307.94
2023-03-04T21:46:00.587Z,100310.84
2023-03-04T21:48:28.224Z,100307.59
2023-03-04T21:50:55.875Z,100314.50
2023-03-04T21:53:23.782Z,100309.97
2023-03-04T21:55:53.108Z,100303.47
2023-03-04T21:58:21.021Z,100303.38
2023-03-04T22:00:51.686Z,100306.38
2023-03-04T22:03:20.981Z,100309.31
2023-03-04T22:05:48.798Z,100297.72
2023-03-04T22:08:18.739Z,100298.09
2023-03-04T22:10:47.827Z,100305.38
2023-03-04T22:13:16.503Z,100297.41
2023-03-04T22:15:45.435Z,100299.66
2023-03-04T22:18:15.397Z,100289.94
2023-03-04T22:20:45.034Z,100294.13
2023-03-04T22:23:13.852Z,100293.75
2023-03-04T22:25:42.308Z,100288.28
2023-03-04T22:28:09.983Z,100284.25
2023-03-04T22:30:37.707Z,100286.03
2023-03-04T22:33:05.855Z,100294.75
2023-03-04T22:35:34.924Z,100291.91
2023-03-04T22:38:02.820Z,100290.78
2023-03-04T22:40:30.829Z,100289.56
2023-03-04T22:42:58.460Z,100287.06
2023-03-04T22:45:28.170Z,100255.31
2023-03-04T22:47:55.868Z,100280.91
2023-03-04T22:50:23.550Z,100286.44
2023-03-04T22:52:52.822Z,100281.00
2023-03-04T22:55:22.804Z,100272.28
2023-03-04T22:57:50.729Z,100262.50
2023-03-04T23:00:22.107Z,100285.25
2023-03-04T23:02:50.556Z,100288.84
2023-03-04T23:05:20.732Z,100281.59
2023-03-04T23:07:48.927Z,100284.78
2023-03-04T23:10:19.952Z,100285.97
2023-03-04T23:12:47.747Z,100281.31
2023-03-04T23:15:17.408Z,100243.97
2023-03-04T23:17:45.598Z,100278.88
2023-03-04T23:20:15.832Z,100270.94
2023-03-04T23:22:43.489Z,100277.72
2023-03-04T23:25:12.329Z,100275.28
2023-03-04T23:27:42.829Z,100273.28
2023-03-04T23:30:16.049Z,100271.41
2023-03-04T23:32:44.231Z,100269.84
2023-03-04T23:35:11.930Z,100268.56
2023-03-04T23:37:39.608Z,100270.22
2023-03-04T23:40:08.749Z,100271.00
2023-03-04T23:42:36.415Z,100262.97
2023-03-04T23:45:06.908Z,100262.31
2023-03-04T23:47:35.553Z,100270.41
2023-03-04T23:50:03.789Z,100258.78
2023-03-04T23:52:31.750Z,100254.94
2023-03-04T23:54:59.459Z,100259.00
2023-03-04T23:57:27.150Z,100253.94
2023-03-04T23:59:54.770Z,100257.72
